createdAt,value
2018-10-12T00:02:19.311Z,15.70
2018-10-12T00:04:47.725Z,16.10
2018-10-12T00:07:16.285Z,15.50
2018-10-12T00:09:44.717Z,16.57
2018-10-12T00:12:13.182Z,15.20
2018-10-12T00:14:41.608Z,15.40
2018-10-12T00:17:10.138Z,16.47
2018-10-12T00:19:38.625Z,17.30
2018-10-12T00:22:07.242Z,16.13
2018-10-12T00:24:35.694Z,15.77
2018-10-12T00:27:04.153Z,16.70
2018-10-12T00:29:32.553Z,16.60
2018-10-12T00:32:01.094Z,16.17
2018-10-12T00:34:29.482Z,16.40
2018-10-12T00:36:57.853Z,16.30
2018-10-12T00:39:26.390Z,14.93
2018-10-12T00:41:54.785Z,17.30
2018-10-12T00:44:23.234Z,16.20
2018-10-12T00:46:51.702Z,17.23
2018-10-12T00:49:20.066Z,17.17
2018-10-12T00:51:48.522Z,15.60
2018-10-12T00:54:16.901Z,15.90
2018-10-12T00:56:45.351Z,15.70
2018-10-12T00:59:13.774Z,14.77
2018-10-12T01:01:42.235Z,16.97
2018-10-12T01:04:10.678Z,16.20
2018-10-12T01:06:39.128Z,17.30
2018-10-12T01:09:07.590Z,15.63
2018-10-12T01:11:35.942Z,15.70
2018-10-12T01:14:04.488Z,16.00
2018-10-12T01:16:32.939Z,16.30
2018-10-12T01:19:01.343Z,16.87
2018-10-12T01:21:29.790Z,16.30
2018-10-12T01:23:58.278Z,16.77
2018-10-12T01:26:26.761Z,16.00
2018-10-12T01:28:56.686Z,15.90
2018-10-12T01:31:26.101Z,17.20
2018-10-12T01:33:54.789Z,15.87
2018-10-12T01:36:23.329Z,17.60
2018-10-12T01:38:51.926Z,17.57
2018-10-12T01:41:20.306Z,15.87
2018-10-12T01:43:48.743Z,14.57
2018-10-12T01:46:17.185Z,15.27
2018-10-12T01:48:45.586Z,15.90
2018-10-12T01:51:14.122Z,14.53
2018-10-12T01:53:42.494Z,16.30
2018-10-12T01:56:10.892Z,14.97
2018-10-12T01:58:39.273Z,15.77
2018-10-12T02:01:08.065Z,15.50
2018-10-12T02:03:36.474Z,15.57
2018-10-12T02:06:04.993Z,15.33
2018-10-12T02:08:33.443Z,14.20
2018-10-12T02:11:01.802Z,15.50
2018-10-12T02:13:30.181Z,15.70
2018-10-12T02:15:58.564Z,12.90
2018-10-12T02:18:27.204Z,15.00
2018-10-12T02:20:55.554Z,15.40
2018-10-12T02:23:23.977Z,15.53
2018-10-12T02:25:52.330Z,14.70
2018-10-12T02:28:20.747Z,16.10
2018-10-12T02:30:49.246Z,15.10
2018-10-12T02:33:17.618Z,16.20
2018-10-12T02:35:46.061Z,14.27
2018-10-12T02:38:14.453Z,14.00
2018-10-12T02:40:42.823Z,14.20
2018-10-12T02:43:11.209Z,14.30
2018-10-12T02:45:39.627Z,15.10
2018-10-12T02:48:08.028Z,13.60
2018-10-12T02:50:36.461Z,14.00
2018-10-12T02:53:05.119Z,13.97
2018-10-12T02:55:33.477Z,12.90
2018-10-12T02:58:01.871Z,12.63
2018-10-12T03:00:30.250Z,13.90
2018-10-12T03:02:58.661Z,14.33
2018-10-12T03:05:27.019Z,14.40
2018-10-12T03:07:55.495Z,12.97
2018-10-12T03:10:23.990Z,13.73
2018-10-12T03:12:52.370Z,12.90
2018-10-12T03:15:20.763Z,13.57
2018-10-12T03:17:49.124Z,14.00
2018-10-12T03:20:17.519Z,13.50
2018-10-12T03:22:46.002Z,13.60
2018-10-12T03:25:14.459Z,13.40
2018-10-12T03:27:54.260Z,13.70
2018-10-12T03:30:22.745Z,13.00
2018-10-12T03:32:51.166Z,14.60
2018-10-12T03:35:19.750Z,13.10
2018-10-12T03:37:48.176Z,14.73
2018-10-12T03:40:16.658Z,14.23
2018-10-12T03:42:45.451Z,15.13
2018-10-12T03:45:13.920Z,16.20
2018-10-12T03:47:43.240Z,14.10
2018-10-12T03:50:11.983Z,15.10
2018-10-12T03:52:40.531Z,13.63
2018-10-12T03:55:08.994Z,13.90
2018-10-12T03:57:37.459Z,14.70
2018-10-12T04:00:05.993Z,12.53
2018-10-12T04:02:34.425Z,14.27
2018-10-12T04:05:02.786Z,14.53
2018-10-12T04:07:31.178Z,12.30
2018-10-12T04:09:59.558Z,13.13
2018-10-12T04:12:28.076Z,13.40
2018-10-12T04:14:56.474Z,14.40
2018-10-12T04:17:25.014Z,14.97
2018-10-12T04:19:53.454Z,16.03
2018-10-12T04:22:25.242Z,14.20
2018-10-12T04:24:53.627Z,15.40
2018-10-12T04:27:22.329Z,16.73
2018-10-12T04:29:50.712Z,15.20
2018-10-12T04:32:19.185Z,14.50
2018-10-12T04:34:48.175Z,15.73
2018-10-12T04:37:17.166Z,14.47
2018-10-12T04:40:58.674Z,16.00
2018-10-12T04:43:27.100Z,15.30
2018-10-12T04:45:55.572Z,14.50
2018-10-12T04:48:23.998Z,16.50
2018-10-12T04:50:52.975Z,14.17
2018-10-12T04:53:21.446Z,13.80
2018-10-12T04:55:49.842Z,16.23
2018-10-12T04:58:18.334Z,14.70
2018-10-12T05:00:46.910Z,13.57
2018-10-12T05:03:15.303Z,14.60
2018-10-12T05:05:44.067Z,15.20
2018-10-12T05:08:12.473Z,14.83
2018-10-12T05:10:40.897Z,14.70
2018-10-12T05:13:09.272Z,15.50
2018-10-12T05:15:37.645Z,14.70
2018-10-12T05:18:06.103Z,14.37
2018-10-12T05:20:34.515Z,15.00
2018-10-12T05:23:02.858Z,14.50
2018-10-12T05:25:31.254Z,13.17
2018-10-12T05:27:59.731Z,14.30
2018-10-12T05:30:28.237Z,14.37
2018-10-12T05:32:56.617Z,14.93
2018-10-12T05:35:24.963Z,14.97
2018-10-12T05:37:53.500Z,13.50
2018-10-12T05:40:24.243Z,13.67
2018-10-12T05:42:52.885Z,15.60
2018-10-12T05:45:21.466Z,14.30
2018-10-12T05:47:49.957Z,13.77
2018-10-12T05:50:18.442Z,13.80
2018-10-12T05:52:46.922Z,14.07
2018-10-12T05:55:15.600Z,13.73
2018-10-12T08:35:18.362Z,7.67
2018-10-12T08:37:46.858Z,8.05
2018-10-12T08:40:15.310Z,7.35
2018-10-12T08:42:43.682Z,7.78
2018-10-12T08:45:12.192Z,7.40
2018-10-12T08:47:40.575Z,6.55
2018-10-12T08:50:09.035Z,6.20
2018-10-12T08:52:37.512Z,6.28
2018-10-12T08:55:06.052Z,6.10
2018-10-12T08:57:34.519Z,5.90
2018-10-12T09:00:03.054Z,6.60
2018-10-12T09:02:31.422Z,5.80
2018-10-12T09:04:59.799Z,6.20
2018-10-12T09:07:28.532Z,5.97
2018-10-12T09:09:57.008Z,5.33
2018-10-12T09:12:25.366Z,5.27
2018-10-12T09:14:53.839Z,5.80
2018-10-12T09:17:22.511Z,5.50
2018-10-12T09:19:50.986Z,6.50
2018-10-12T09:22:19.391Z,6.30
2018-10-12T09:24:47.767Z,6.07
2018-10-12T09:27:16.231Z,6.53
2018-10-12T09:29:44.556Z,6.67
2018-10-12T09:32:13.098Z,6.83
2018-10-12T09:34:41.578Z,6.90
2018-10-12T09:37:10.384Z,7.00
2018-10-12T09:39:38.457Z,6.47
2018-10-12T09:42:07.256Z,7.20
2018-10-12T09:44:35.691Z,7.42
2018-10-12T09:47:04.102Z,7.75
2018-10-12T09:49:32.501Z,5.90
2018-10-12T09:52:00.942Z,5.70
2018-10-12T09:54:29.318Z,6.27
2018-10-12T09:57:03.127Z,6.07
2018-10-12T09:59:31.550Z,6.30
2018-10-12T10:02:05.361Z,5.67
2018-10-12T10:04:34.628Z,5.83
2018-10-12T10:07:03.938Z,5.83
2018-10-12T10:09:32.500Z,5.47
2018-10-12T10:12:00.922Z,5.00
2018-10-12T10:14:29.782Z,5.10
2018-10-12T10:16:58.208Z,5.50
2018-10-12T10:19:26.707Z,4.70
2018-10-12T10:21:55.062Z,4.33
2018-10-12T10:24:23.566Z,4.73
2018-10-12T10:26:52.029Z,4.23
2018-10-12T10:29:20.836Z,4.70
2018-10-12T10:31:49.283Z,4.50
2018-10-12T10:34:17.841Z,3.53
2018-10-12T10:36:46.237Z,4.70
2018-10-12T10:39:14.665Z,3.70
2018-10-12T10:41:43.102Z,3.60
2018-10-12T10:44:11.474Z,3.60
2018-10-12T10:46:39.895Z,4.05
2018-10-12T10:49:08.313Z,3.42
2018-10-12T10:51:36.743Z,4.00
2018-10-12T10:54:05.226Z,3.72
2018-10-12T10:56:33.757Z,3.43
2018-10-12T10:59:02.181Z,3.80
2018-10-12T11:01:30.591Z,3.10
2018-10-12T11:03:58.950Z,3.17
2018-10-12T11:06:27.476Z,2.87
2018-10-12T11:08:55.822Z,3.10
2018-10-12T11:11:24.245Z,2.70
2018-10-12T11:13:52.654Z,2.90
2018-10-12T11:16:21.121Z,2.85
2018-10-12T11:18:49.557Z,2.60
2018-10-12T11:21:18.006Z,2.67
2018-10-12T11:23:46.482Z,2.80
2018-10-12T11:26:14.937Z,2.80
2018-10-12T11:28:43.357Z,2.83
2018-10-12T11:31:11.766Z,2.80
2018-10-12T11:33:40.187Z,3.00
2018-10-12T11:36:08.617Z,2.50
2018-10-12T11:38:37.389Z,2.30
2018-10-12T11:41:06.406Z,2.60
2018-10-12T11:43:36.527Z,2.58
2018-10-12T11:46:04.909Z,2.98
2018-10-12T11:48:33.456Z,3.25
2018-10-12T11:51:02.130Z,3.00
2018-10-12T11:53:30.755Z,2.87
2018-10-12T11:55:59.179Z,2.80
2018-10-12T11:58:27.618Z,2.80
2018-10-12T12:00:56.096Z,3.17
2018-10-12T12:03:24.589Z,3.15
2018-10-12T12:05:53.041Z,3.00
2018-10-12T12:08:21.802Z,3.08
2018-10-12T12:10:50.239Z,2.55
2018-10-12T12:13:18.772Z,2.87
2018-10-12T12:15:47.249Z,2.40
2018-10-12T12:18:15.670Z,2.80
2018-10-12T12:20:44.213Z,3.00
2018-10-12T12:23:12.617Z,2.77
2018-10-12T12:25:40.999Z,2.50
2018-10-12T12:28:09.668Z,2.80
2018-10-12T12:30:38.258Z,2.45
2018-10-12T12:33:06.786Z,2.70
2018-10-12T12:35:35.814Z,2.52
2018-10-12T12:38:03.873Z,2.62
2018-10-12T12:40:32.366Z,2.10
2018-10-12T12:43:01.013Z,2.60
2018-10-12T12:45:29.543Z,2.60
2018-10-12T12:47:58.115Z,2.50
2018-10-12T12:50:26.542Z,2.35
2018-10-12T12:52:54.982Z,2.33
2018-10-12T12:55:23.586Z,2.65
2018-10-12T12:57:52.182Z,2.20
2018-10-12T13:00:20.638Z,2.25
2018-10-12T13:02:49.293Z,2.50
2018-10-12T13:05:17.674Z,2.55
2018-10-12T13:07:46.167Z,2.30
2018-10-12T13:10:14.602Z,2.47
2018-10-12T13:12:42.990Z,2.17
2018-10-12T13:15:11.475Z,1.90
2018-10-12T13:17:39.898Z,2.20
2018-10-12T13:20:08.428Z,2.40
2018-10-12T13:22:36.950Z,2.15
2018-10-12T13:25:05.671Z,2.27
2018-10-12T13:27:34.185Z,2.25
2018-10-12T13:30:02.719Z,2.10
2018-10-12T13:32:31.217Z,2.20
2018-10-12T13:34:59.634Z,2.08
2018-10-12T13:37:28.081Z,2.20
2018-10-12T13:39:56.501Z,1.80
2018-10-12T13:42:24.958Z,2.30
2018-10-12T13:44:53.378Z,1.82
2018-10-12T13:47:21.819Z,2.00
2018-10-12T13:49:50.268Z,2.10
2018-10-12T13:52:18.677Z,2.70
2018-10-12T13:54:47.065Z,2.10
2018-10-12T13:57:15.518Z,2.00
2018-10-12T13:59:43.908Z,1.90
2018-10-12T14:02:12.385Z,1.90
2018-10-12T14:04:40.767Z,2.00
2018-10-12T14:07:09.204Z,2.08
2018-10-12T14:09:37.750Z,2.00
2018-10-12T14:12:06.260Z,1.72
2018-10-12T14:14:34.795Z,1.80
2018-10-12T14:17:03.494Z,1.90
2018-10-12T14:19:32.194Z,1.53
2018-10-12T14:22:00.463Z,2.33
2018-10-12T14:24:28.921Z,1.90
2018-10-12T14:26:57.427Z,2.10
2018-10-12T14:29:26.090Z,2.00
2018-10-12T14:31:54.489Z,2.00
2018-10-12T14:34:22.860Z,1.50
2018-10-12T14:36:51.242Z,1.77
2018-10-12T14:39:19.737Z,2.13
2018-10-12T14:41:48.243Z,1.70
2018-10-12T14:44:16.769Z,2.10
2018-10-12T14:46:45.069Z,2.47
2018-10-12T14:49:13.574Z,1.93
2018-10-12T14:51:42.024Z,1.90
2018-10-12T14:54:10.457Z,1.80
2018-10-12T14:56:38.870Z,1.57
2018-10-12T14:59:07.428Z,2.50
2018-10-12T15:01:35.774Z,1.80
2018-10-12T15:04:04.192Z,1.90
2018-10-12T15:06:32.641Z,2.10
2018-10-12T15:09:01.141Z,1.87
2018-10-12T15:11:29.609Z,1.63
2018-10-12T15:13:58.038Z,2.30
2018-10-12T15:16:26.434Z,2.00
2018-10-12T15:18:54.839Z,2.57
2018-10-12T15:21:23.373Z,1.73
2018-10-12T15:23:51.590Z,1.73
2018-10-12T15:26:20.060Z,1.90
2018-10-12T15:28:48.593Z,2.67
2018-10-12T15:31:16.976Z,1.60
2018-10-12T15:33:45.363Z,1.90
2018-10-12T15:36:13.739Z,2.50
2018-10-12T15:38:42.213Z,2.30
2018-10-12T15:41:10.649Z,2.10
2018-10-12T15:43:39.043Z,2.33
2018-10-12T15:46:07.430Z,1.83
2018-10-12T15:48:35.999Z,2.30
2018-10-12T15:51:04.543Z,1.90
2018-10-12T15:53:32.918Z,2.70
2018-10-12T15:56:01.402Z,2.30
2018-10-12T15:58:29.766Z,2.37
2018-10-12T16:00:58.262Z,2.10
2018-10-12T16:03:26.621Z,2.23
2018-10-12T16:05:55.056Z,2.07
2018-10-12T16:08:23.418Z,2.20
2018-10-12T16:10:51.934Z,3.00
2018-10-12T16:13:20.398Z,5.60
2018-10-12T16:15:48.779Z,2.67
2018-10-12T16:18:17.175Z,2.53
2018-10-12T16:20:45.599Z,2.30
2018-10-12T16:23:14.115Z,2.40
2018-10-12T16:25:56.267Z,3.00
2018-10-12T16:28:24.671Z,3.20
2018-10-12T16:30:53.935Z,2.80
2018-10-12T16:33:22.867Z,3.00
2018-10-12T16:35:52.580Z,3.50
2018-10-12T16:38:20.924Z,3.30
2018-10-12T16:40:49.330Z,2.87
2018-10-12T16:43:17.967Z,3.77
2018-10-12T16:45:47.906Z,3.53
2018-10-12T16:48:16.417Z,3.50
2018-10-12T16:50:44.869Z,3.63
2018-10-12T16:53:13.921Z,5.77
2018-10-12T16:55:42.872Z,3.97
2018-10-12T16:58:13.269Z,3.90
2018-10-12T17:00:42.475Z,3.70
2018-10-12T17:03:11.558Z,3.23
2018-10-12T17:05:40.615Z,3.87
2018-10-12T17:08:09.855Z,4.70
2018-10-12T17:10:38.855Z,3.70
2018-10-12T17:13:07.599Z,4.80
2018-10-12T17:15:36.554Z,4.13
2018-10-12T17:18:05.282Z,3.83
2018-10-12T17:20:34.072Z,4.53
2018-10-12T17:23:02.781Z,4.50
2018-10-12T17:25:31.894Z,4.10
2018-10-12T17:28:00.781Z,4.90
2018-10-12T17:30:29.401Z,4.93
2018-10-12T17:32:57.722Z,5.17
2018-10-12T17:35:26.296Z,6.37
2018-10-12T17:37:54.775Z,6.30
2018-10-12T17:40:23.215Z,6.13
2018-10-12T17:42:51.744Z,5.73
2018-10-12T17:45:20.279Z,5.60
2018-10-12T17:47:48.703Z,6.10
2018-10-12T17:50:17.082Z,6.23
2018-10-12T17:52:45.484Z,6.80
2018-10-12T17:55:14.001Z,6.60
2018-10-12T17:57:42.462Z,6.30
2018-10-12T18:00:11.108Z,6.90
2018-10-12T18:02:39.410Z,6.33
2018-10-12T18:05:08.287Z,7.73
2018-10-12T18:07:36.688Z,7.13
2018-10-12T18:10:05.729Z,6.13
2018-10-12T18:12:34.146Z,31.20
2018-10-12T18:15:02.679Z,29.20
2018-10-12T18:17:31.339Z,20.23
2018-10-12T18:19:59.758Z,15.40
2018-10-12T18:22:28.314Z,13.73
2018-10-12T18:24:56.907Z,8.50
2018-10-12T18:27:25.441Z,8.03
2018-10-12T18:29:53.954Z,7.73
2018-10-12T18:32:22.397Z,7.03
2018-10-12T18:34:50.921Z,6.90
2018-10-12T18:37:19.344Z,6.27
2018-10-12T18:39:47.865Z,8.10
2018-10-12T18:42:16.356Z,9.40
2018-10-12T18:44:44.980Z,6.80
2018-10-12T18:47:13.572Z,10.00
2018-10-12T18:49:42.142Z,7.50
2018-10-12T18:52:10.750Z,7.37
2018-10-12T18:54:39.503Z,7.00
2018-10-12T18:57:08.067Z,7.80
2018-10-12T18:59:36.699Z,7.33
2018-10-12T19:02:05.132Z,8.07
2018-10-12T19:04:33.774Z,7.60
2018-10-12T19:07:02.433Z,7.93
2018-10-12T19:09:30.835Z,7.70
2018-10-12T19:11:59.512Z,7.70
2018-10-12T19:14:27.962Z,7.27
2018-10-12T19:16:56.491Z,7.27
2018-10-12T19:19:25.131Z,9.90
2018-10-12T19:21:53.564Z,9.57
2018-10-12T19:24:22.085Z,7.50
2018-10-12T19:26:50.539Z,8.30
2018-10-12T19:29:18.967Z,8.50
2018-10-12T19:31:47.482Z,9.40
2018-10-12T19:34:15.865Z,7.43
2018-10-12T19:36:44.327Z,8.63
2018-10-12T19:39:12.782Z,7.50
2018-10-12T19:41:41.332Z,8.87
2018-10-12T19:44:10.398Z,8.63
2018-10-12T19:46:38.892Z,8.53
2018-10-12T19:49:07.436Z,8.87
2018-10-12T19:51:35.917Z,9.23
2018-10-12T19:54:04.351Z,17.63
2018-10-12T19:56:32.824Z,26.00
2018-10-12T19:59:01.328Z,19.90
2018-10-12T20:01:29.838Z,18.30
2018-10-12T20:03:58.243Z,15.97
2018-10-12T20:06:26.732Z,15.30
2018-10-12T20:08:55.155Z,17.87
2018-10-12T20:11:23.611Z,16.73
2018-10-12T20:13:52.162Z,16.97
2018-10-12T20:16:20.657Z,14.40
2018-10-12T20:18:49.108Z,15.10
2018-10-12T20:21:17.650Z,16.83
2018-10-12T20:23:46.217Z,24.27
2018-10-12T20:26:14.824Z,23.90
2018-10-12T20:28:43.274Z,25.73
2018-10-12T20:31:11.941Z,24.90
2018-10-12T20:33:40.431Z,21.97
2018-10-12T20:36:08.863Z,21.20
2018-10-12T20:38:37.375Z,19.10
2018-10-12T20:41:06.085Z,15.77
2018-10-12T20:43:34.519Z,27.30
2018-10-12T20:46:03.071Z,18.10
2018-10-12T20:48:31.788Z,20.07
2018-10-12T20:51:00.228Z,17.17
2018-10-12T20:53:28.761Z,14.87
2018-10-12T20:55:57.471Z,18.87
2018-10-12T20:58:25.932Z,16.10
2018-10-12T21:00:54.550Z,15.33
2018-10-12T21:03:22.922Z,15.03
2018-10-12T21:05:51.416Z,12.53
2018-10-12T21:08:26.546Z,12.30
2018-10-12T21:10:55.094Z,17.27
2018-10-12T21:13:23.483Z,23.70
2018-10-12T21:15:51.963Z,17.30
2018-10-12T21:18:20.487Z,14.67
2018-10-12T21:20:48.979Z,14.17
2018-10-12T21:23:17.361Z,15.10
2018-10-12T21:25:45.775Z,14.30
2018-10-12T21:28:14.207Z,14.83
2018-10-12T21:30:42.783Z,16.27
2018-10-12T21:33:11.298Z,14.70
2018-10-12T21:35:39.882Z,14.20
2018-10-12T21:38:08.336Z,11.13
2018-10-12T21:40:36.843Z,17.27
2018-10-12T21:43:05.259Z,16.67
2018-10-12T21:45:33.740Z,16.43
2018-10-12T21:48:02.182Z,12.60
2018-10-12T21:50:30.625Z,12.30
2018-10-12T21:52:58.973Z,15.30
2018-10-12T21:55:27.629Z,17.87
2018-10-12T21:57:56.296Z,13.60
2018-10-12T22:00:24.772Z,13.30
2018-10-12T22:02:53.418Z,15.90
2018-10-12T22:05:21.830Z,15.10
2018-10-12T22:07:50.287Z,14.13
2018-10-12T22:10:19.421Z,13.63
2018-10-12T22:12:48.778Z,13.67
2018-10-12T22:15:17.212Z,13.70
2018-10-12T22:17:45.651Z,11.87
2018-10-12T22:20:14.079Z,11.43
2018-10-12T22:22:42.446Z,12.13
2018-10-12T22:25:10.882Z,12.90
2018-10-12T22:27:40.409Z,14.57
2018-10-12T22:30:08.978Z,15.77
2018-10-12T22:32:37.440Z,14.30
2018-10-12T22:35:05.888Z,13.00
2018-10-12T22:37:34.718Z,13.53
2018-10-12T22:40:03.374Z,13.17
2018-10-12T22:42:31.887Z,13.60
2018-10-12T22:45:00.290Z,11.73
2018-10-12T22:47:28.706Z,11.53
2018-10-12T22:49:57.135Z,11.23
2018-10-12T22:52:25.571Z,10.03
2018-10-12T22:54:54.610Z,10.77
2018-10-12T22:57:23.058Z,10.37
2018-10-12T22:59:51.505Z,12.53
2018-10-12T23:02:19.969Z,10.40
2018-10-12T23:04:51.230Z,9.90
2018-10-12T23:07:19.620Z,8.63
2018-10-12T23:09:48.023Z,9.17
2018-10-12T23:12:16.389Z,9.87
2018-10-12T23:14:44.779Z,9.73
2018-10-12T23:17:13.253Z,8.70
2018-10-12T23:19:41.801Z,10.37
2018-10-12T23:22:10.291Z,9.80
2018-10-12T23:24:38.673Z,9.00
2018-10-12T23:27:07.227Z,10.57
2018-10-12T23:29:35.578Z,11.23
2018-10-12T23:32:03.976Z,10.20
2018-10-12T23:34:32.370Z,9.10
2018-10-12T23:37:00.760Z,10.00
2018-10-12T23:39:29.248Z,10.40
2018-10-12T23:41:57.664Z,10.03
2018-10-12T23:44:26.022Z,10.70
2018-10-12T23:46:54.546Z,10.17
2018-10-12T23:49:23.055Z,10.70
2018-10-12T23:51:51.517Z,10.37
2018-10-12T23:54:19.935Z,10.60
2018-10-12T23:56:48.350Z,10.93
2018-10-12T23:59:16.883Z,11.20
